sensor_id;sensor_type;location;lat;lon;timestamp;P1;durP1;ratioP1;P2;durP2;ratioP2
60352;SDS011;46196;52.970;6.954;2023-07-31T00:00:13;5.35;;;2.92;;
60352;SDS011;46196;52.970;6.954;2023-07-31T00:02:39;4.70;;;2.85;;
60352;SDS011;46196;52.970;6.954;2023-07-31T00:05:04;6.40;;;2.97;;
60352;SDS011;46196;52.970;6.954;2023-07-31T00:07:31;4.93;;;3.03;;
60352;SDS011;46196;52.970;6.954;2023-07-31T00:09:57;5.38;;;3.20;;
60352;SDS011;46196;52.970;6.954;2023-07-31T00:12:23;4.05;;;2.63;;
60352;SDS011;46196;52.970;6.954;2023-07-31T00:14:49;4.65;;;3.05;;
60352;SDS011;46196;52.970;6.954;2023-07-31T00:17:16;4.75;;;3.20;;
60352;SDS011;46196;52.970;6.954;2023-07-31T00:19:42;5.15;;;3.22;;
60352;SDS011;46196;52.970;6.954;2023-07-31T00:22:08;5.20;;;3.33;;
60352;SDS011;46196;52.970;6.954;2023-07-31T00:24:34;7.43;;;3.63;;
60352;SDS011;46196;52.970;6.954;2023-07-31T00:26:59;4.57;;;3.10;;
60352;SDS011;46196;52.970;6.954;2023-07-31T00:29:26;5.07;;;3.00;;
60352;SDS011;46196;52.970;6.954;2023-07-31T00:31:52;4.68;;;2.65;;
60352;SDS011;46196;52.970;6.954;2023-07-31T00:34:18;7.97;;;3.60;;
60352;SDS011;46196;52.970;6.954;2023-07-31T00:36:44;6.65;;;3.60;;
60352;SDS011;46196;52.970;6.954;2023-07-31T00:39:09;7.78;;;3.42;;
60352;SDS011;46196;52.970;6.954;2023-07-31T00:41:35;8.10;;;3.40;;
60352;SDS011;46196;52.970;6.954;2023-07-31T00:44:01;7.25;;;3.25;;
60352;SDS011;46196;52.970;6.954;2023-07-31T00:46:27;5.80;;;3.00;;
60352;SDS011;46196;52.970;6.954;2023-07-31T00:51:29;5.63;;;3.30;;
60352;SDS011;46196;52.970;6.954;2023-07-31T00:53:55;7.20;;;3.20;;
60352;SDS011;46196;52.970;6.954;2023-07-31T00:56:21;5.07;;;3.00;;
60352;SDS011;46196;52.970;6.954;2023-07-31T00:58:48;5.15;;;3.28;;
60352;SDS011;46196;52.970;6.954;2023-07-31T01:01:14;4.78;;;3.00;;
60352;SDS011;46196;52.970;6.954;2023-07-31T01:03:40;5.50;;;3.05;;
60352;SDS011;46196;52.970;6.954;2023-07-31T01:06:18;5.88;;;3.40;;
60352;SDS011;46196;52.970;6.954;2023-07-31T01:11:57;4.93;;;3.15;;
60352;SDS011;46196;52.970;6.954;2023-07-31T01:14:27;4.40;;;3.15;;
60352;SDS011;46196;52.970;6.954;2023-07-31T01:16:54;4.88;;;2.92;;
60352;SDS011;46196;52.970;6.954;2023-07-31T01:19:24;5.10;;;3.03;;
60352;SDS011;46196;52.970;6.954;2023-07-31T01:27:40;4.72;;;3.15;;
60352;SDS011;46196;52.970;6.954;2023-07-31T01:30:24;4.30;;;2.90;;
60352;SDS011;46196;52.970;6.954;2023-07-31T01:32:52;4.97;;;3.10;;
60352;SDS011;46196;52.970;6.954;2023-07-31T01:35:19;4.43;;;2.97;;
60352;SDS011;46196;52.970;6.954;2023-07-31T01:37:45;5.15;;;2.53;;
60352;SDS011;46196;52.970;6.954;2023-07-31T01:40:11;4.47;;;2.80;;
60352;SDS011;46196;52.970;6.954;2023-07-31T01:42:37;6.18;;;3.00;;
60352;SDS011;46196;52.970;6.954;2023-07-31T01:45:03;4.68;;;2.55;;
60352;SDS011;46196;52.970;6.954;2023-07-31T01:47:29;4.47;;;2.88;;
60352;SDS011;46196;52.970;6.954;2023-07-31T01:49:55;6.00;;;2.83;;
60352;SDS011;46196;52.970;6.954;2023-07-31T01:52:20;3.45;;;2.30;;
60352;SDS011;46196;52.970;6.954;2023-07-31T01:54:46;3.03;;;2.20;;
60352;SDS011;46196;52.970;6.954;2023-07-31T01:57:12;5.30;;;2.50;;
60352;SDS011;46196;52.970;6.954;2023-07-31T01:59:38;3.88;;;2.28;;
60352;SDS011;46196;52.970;6.954;2023-07-31T02:02:04;2.80;;;2.20;;
60352;SDS011;46196;52.970;6.954;2023-07-31T02:04:30;3.58;;;2.28;;
60352;SDS011;46196;52.970;6.954;2023-07-31T02:06:56;4.25;;;2.00;;
60352;SDS011;46196;52.970;6.954;2023-07-31T02:09:22;2.95;;;2.05;;
60352;SDS011;46196;52.970;6.954;2023-07-31T02:11:48;2.58;;;1.90;;
60352;SDS011;46196;52.970;6.954;2023-07-31T02:14:13;5.15;;;2.10;;
60352;SDS011;46196;52.970;6.954;2023-07-31T02:16:39;2.25;;;1.80;;
60352;SDS011;46196;52.970;6.954;2023-07-31T02:19:07;4.43;;;1.90;;
60352;SDS011;46196;52.970;6.954;2023-07-31T02:21:33;3.80;;;1.80;;
60352;SDS011;46196;52.970;6.954;2023-07-31T02:23:58;2.40;;;1.73;;
60352;SDS011;46196;52.970;6.954;2023-07-31T02:26:24;2.42;;;1.80;;
60352;SDS011;46196;52.970;6.954;2023-07-31T02:28:50;2.42;;;2.00;;
60352;SDS011;46196;52.970;6.954;2023-07-31T02:31:15;4.60;;;1.80;;
60352;SDS011;46196;52.970;6.954;2023-07-31T02:33:41;2.00;;;1.80;;
60352;SDS011;46196;52.970;6.954;2023-07-31T02:36:07;3.40;;;1.92;;
60352;SDS011;46196;52.970;6.954;2023-07-31T02:38:33;2.92;;;2.00;;
60352;SDS011;46196;52.970;6.954;2023-07-31T02:41:02;4.20;;;1.88;;
60352;SDS011;46196;52.970;6.954;2023-07-31T02:43:27;3.63;;;2.10;;
60352;SDS011;46196;52.970;6.954;2023-07-31T02:45:53;3.05;;;2.20;;
60352;SDS011;46196;52.970;6.954;2023-07-31T02:48:19;5.22;;;2.08;;
60352;SDS011;46196;52.970;6.954;2023-07-31T02:50:45;3.40;;;2.10;;
60352;SDS011;46196;52.970;6.954;2023-07-31T02:53:11;2.90;;;2.03;;
60352;SDS011;46196;52.970;6.954;2023-07-31T02:55:36;4.57;;;2.00;;
60352;SDS011;46196;52.970;6.954;2023-07-31T02:58:02;2.80;;;1.85;;
60352;SDS011;46196;52.970;6.954;2023-07-31T03:00:28;4.82;;;2.10;;
60352;SDS011;46196;52.970;6.954;2023-07-31T03:02:54;4.28;;;1.90;;
60352;SDS011;46196;52.970;6.954;2023-07-31T03:05:20;2.67;;;1.98;;
60352;SDS011;46196;52.970;6.954;2023-07-31T03:07:46;3.20;;;1.90;;
60352;SDS011;46196;52.970;6.954;2023-07-31T03:10:11;3.13;;;2.35;;
60352;SDS011;46196;52.970;6.954;2023-07-31T03:12:37;2.72;;;1.80;;
60352;SDS011;46196;52.970;6.954;2023-07-31T03:15:04;2.35;;;1.80;;
60352;SDS011;46196;52.970;6.954;2023-07-31T03:17:29;3.83;;;1.90;;
60352;SDS011;46196;52.970;6.954;2023-07-31T03:19:55;2.28;;;1.80;;
60352;SDS011;46196;52.970;6.954;2023-07-31T03:22:21;3.10;;;1.80;;
60352;SDS011;46196;52.970;6.954;2023-07-31T03:24:47;3.47;;;2.13;;
60352;SDS011;46196;52.970;6.954;2023-07-31T03:27:13;3.35;;;2.20;;
60352;SDS011;46196;52.970;6.954;2023-07-31T03:29:38;3.05;;;2.35;;
60352;SDS011;46196;52.970;6.954;2023-07-31T03:32:04;4.10;;;1.98;;
60352;SDS011;46196;52.970;6.954;2023-07-31T03:34:30;2.85;;;2.05;;
60352;SDS011;46196;52.970;6.954;2023-07-31T03:36:57;2.33;;;1.98;;
60352;SDS011;46196;52.970;6.954;2023-07-31T03:39:23;2.80;;;2.00;;
60352;SDS011;46196;52.970;6.954;2023-07-31T03:41:49;4.53;;;2.33;;
60352;SDS011;46196;52.970;6.954;2023-07-31T03:44:15;3.10;;;2.10;;
60352;SDS011;46196;52.970;6.954;2023-07-31T03:46:40;4.43;;;2.28;;
60352;SDS011;46196;52.970;6.954;2023-07-31T03:49:06;3.90;;;2.17;;
60352;SDS011;46196;52.970;6.954;2023-07-31T03:51:32;3.63;;;2.30;;
60352;SDS011;46196;52.970;6.954;2023-07-31T03:53:57;2.63;;;2.03;;
60352;SDS011;46196;52.970;6.954;2023-07-31T03:56:23;3.33;;;2.10;;
60352;SDS011;46196;52.970;6.954;2023-07-31T03:58:49;2.70;;;2.05;;
60352;SDS011;46196;52.970;6.954;2023-07-31T04:01:15;2.60;;;2.00;;
60352;SDS011;46196;52.970;6.954;2023-07-31T04:03:41;4.18;;;2.30;;
60352;SDS011;46196;52.970;6.954;2023-07-31T04:06:07;2.97;;;2.30;;
60352;SDS011;46196;52.970;6.954;2023-07-31T04:08:33;2.97;;;2.10;;
60352;SDS011;46196;52.970;6.954;2023-07-31T04:10:59;3.92;;;2.30;;
60352;SDS011;46196;52.970;6.954;2023-07-31T04:13:25;3.83;;;2.22;;
60352;SDS011;46196;52.970;6.954;2023-07-31T04:15:52;3.15;;;2.17;;
60352;SDS011;46196;52.970;6.954;2023-07-31T04:18:19;3.15;;;2.20;;
60352;SDS011;46196;52.970;6.954;2023-07-31T04:20:45;2.80;;;2.08;;
60352;SDS011;46196;52.970;6.954;2023-07-31T04:23:11;3.95;;;2.50;;
60352;SDS011;46196;52.970;6.954;2023-07-31T04:25:36;3.45;;;2.22;;
60352;SDS011;46196;52.970;6.954;2023-07-31T04:28:02;3.97;;;2.30;;
60352;SDS011;46196;52.970;6.954;2023-07-31T04:30:28;3.20;;;2.30;;
60352;SDS011;46196;52.970;6.954;2023-07-31T04:32:54;3.05;;;2.30;;
60352;SDS011;46196;52.970;6.954;2023-07-31T04:35:20;5.82;;;2.40;;
60352;SDS011;46196;52.970;6.954;2023-07-31T04:37:46;4.60;;;2.35;;
60352;SDS011;46196;52.970;6.954;2023-07-31T04:40:13;3.40;;;2.47;;
60352;SDS011;46196;52.970;6.954;2023-07-31T04:42:40;4.60;;;2.50;;
60352;SDS011;46196;52.970;6.954;2023-07-31T04:45:06;4.43;;;2.22;;
60352;SDS011;46196;52.970;6.954;2023-07-31T04:47:32;4.97;;;2.38;;
60352;SDS011;46196;52.970;6.954;2023-07-31T04:49:58;4.13;;;2.45;;
60352;SDS011;46196;52.970;6.954;2023-07-31T04:52:23;4.28;;;2.35;;
60352;SDS011;46196;52.970;6.954;2023-07-31T04:54:49;4.53;;;2.35;;
60352;SDS011;46196;52.970;6.954;2023-07-31T04:57:15;2.70;;;2.20;;
60352;SDS011;46196;52.970;6.954;2023-07-31T04:59:41;3.83;;;2.22;;
60352;SDS011;46196;52.970;6.954;2023-07-31T05:02:08;2.53;;;1.95;;
60352;SDS011;46196;52.970;6.954;2023-07-31T05:04:33;2.65;;;1.90;;
60352;SDS011;46196;52.970;6.954;2023-07-31T05:07:02;2.72;;;2.00;;
60352;SDS011;46196;52.970;6.954;2023-07-31T05:09:28;3.90;;;2.17;;
60352;SDS011;46196;52.970;6.954;2023-07-31T05:11:53;2.92;;;2.10;;
60352;SDS011;46196;52.970;6.954;2023-07-31T05:14:19;2.92;;;2.10;;
60352;SDS011;46196;52.970;6.954;2023-07-31T05:16:45;2.95;;;2.30;;
60352;SDS011;46196;52.970;6.954;2023-07-31T05:19:11;3.03;;;2.10;;
60352;SDS011;46196;52.970;6.954;2023-07-31T05:21:37;2.53;;;2.03;;
60352;SDS011;46196;52.970;6.954;2023-07-31T05:24:03;2.65;;;2.10;;
60352;SDS011;46196;52.970;6.954;2023-07-31T05:26:29;4.55;;;2.28;;
60352;SDS011;46196;52.970;6.954;2023-07-31T05:28:55;3.72;;;2.33;;
60352;SDS011;46196;52.970;6.954;2023-07-31T05:31:20;4.45;;;2.25;;
60352;SDS011;46196;52.970;6.954;2023-07-31T05:33:47;5.45;;;2.92;;
60352;SDS011;46196;52.970;6.954;2023-07-31T05:36:15;5.32;;;3.17;;
60352;SDS011;46196;52.970;6.954;2023-07-31T05:38:41;5.03;;;2.97;;
60352;SDS011;46196;52.970;6.954;2023-07-31T05:41:09;7.68;;;3.75;;
60352;SDS011;46196;52.970;6.954;2023-07-31T05:43:39;6.00;;;3.78;;
60352;SDS011;46196;52.970;6.954;2023-07-31T05:46:05;9.55;;;3.95;;
60352;SDS011;46196;52.970;6.954;2023-07-31T05:48:32;7.95;;;3.50;;
60352;SDS011;46196;52.970;6.954;2023-07-31T05:50:59;11.32;;;4.97;;
60352;SDS011;46196;52.970;6.954;2023-07-31T05:53:25;7.72;;;3.72;;
60352;SDS011;46196;52.970;6.954;2023-07-31T05:55:51;10.07;;;4.65;;
60352;SDS011;46196;52.970;6.954;2023-07-31T05:58:16;15.02;;;5.55;;
60352;SDS011;46196;52.970;6.954;2023-07-31T06:00:42;17.13;;;5.45;;
60352;SDS011;46196;52.970;6.954;2023-07-31T06:03:08;13.57;;;5.50;;
60352;SDS011;46196;52.970;6.954;2023-07-31T06:05:33;18.10;;;5.88;;
60352;SDS011;46196;52.970;6.954;2023-07-31T06:07:59;12.27;;;5.15;;
60352;SDS011;46196;52.970;6.954;2023-07-31T06:10:25;12.77;;;5.40;;
60352;SDS011;46196;52.970;6.954;2023-07-31T06:12:51;10.48;;;5.03;;
60352;SDS011;46196;52.970;6.954;2023-07-31T06:15:18;16.42;;;5.63;;
60352;SDS011;46196;52.970;6.954;2023-07-31T06:17:44;13.75;;;5.85;;
60352;SDS011;46196;52.970;6.954;2023-07-31T06:20:10;13.50;;;5.07;;
60352;SDS011;46196;52.970;6.954;2023-07-31T06:22:36;18.50;;;6.50;;
60352;SDS011;46196;52.970;6.954;2023-07-31T06:25:02;20.75;;;6.40;;
60352;SDS011;46196;52.970;6.954;2023-07-31T06:27:28;16.45;;;6.30;;
60352;SDS011;46196;52.970;6.954;2023-07-31T06:29:53;14.73;;;5.43;;
60352;SDS011;46196;52.970;6.954;2023-07-31T06:32:19;18.63;;;5.53;;
60352;SDS011;46196;52.970;6.954;2023-07-31T06:34:45;20.75;;;5.85;;
60352;SDS011;46196;52.970;6.954;2023-07-31T06:37:11;15.55;;;6.53;;
60352;SDS011;46196;52.970;6.954;2023-07-31T06:39:37;18.13;;;6.65;;
60352;SDS011;46196;52.970;6.954;2023-07-31T06:42:03;14.70;;;5.88;;
60352;SDS011;46196;52.970;6.954;2023-07-31T06:44:29;10.82;;;5.68;;
60352;SDS011;46196;52.970;6.954;2023-07-31T06:46:55;13.00;;;6.30;;
60352;SDS011;46196;52.970;6.954;2023-07-31T06:49:21;8.23;;;4.35;;
60352;SDS011;46196;52.970;6.954;2023-07-31T06:51:47;15.70;;;5.80;;
60352;SDS011;46196;52.970;6.954;2023-07-31T06:54:16;13.57;;;5.50;;
60352;SDS011;46196;52.970;6.954;2023-07-31T06:56:41;16.23;;;6.75;;
60352;SDS011;46196;52.970;6.954;2023-07-31T06:59:07;15.32;;;6.50;;
60352;SDS011;46196;52.970;6.954;2023-07-31T07:01:33;17.55;;;7.03;;
60352;SDS011;46196;52.970;6.954;2023-07-31T07:03:58;19.98;;;6.85;;
60352;SDS011;46196;52.970;6.954;2023-07-31T07:06:24;19.02;;;6.95;;
60352;SDS011;46196;52.970;6.954;2023-07-31T07:08:50;17.60;;;6.00;;
60352;SDS011;46196;52.970;6.954;2023-07-31T07:11:16;22.08;;;6.65;;
60352;SDS011;46196;52.970;6.954;2023-07-31T07:13:41;19.10;;;6.63;;
60352;SDS011;46196;52.970;6.954;2023-07-31T07:16:07;11.85;;;6.50;;
60352;SDS011;46196;52.970;6.954;2023-07-31T07:18:33;18.05;;;7.45;;
60352;SDS011;46196;52.970;6.954;2023-07-31T07:20:59;17.83;;;7.50;;
60352;SDS011;46196;52.970;6.954;2023-07-31T07:23:27;16.70;;;7.10;;
60352;SDS011;46196;52.970;6.954;2023-07-31T07:25:52;17.75;;;6.60;;
60352;SDS011;46196;52.970;6.954;2023-07-31T07:28:18;15.20;;;7.25;;
60352;SDS011;46196;52.970;6.954;2023-07-31T07:30:44;17.90;;;7.82;;
60352;SDS011;46196;52.970;6.954;2023-07-31T07:33:10;18.73;;;7.20;;
60352;SDS011;46196;52.970;6.954;2023-07-31T07:35:37;18.35;;;7.50;;
60352;SDS011;46196;52.970;6.954;2023-07-31T07:38:03;12.50;;;6.28;;
60352;SDS011;46196;52.970;6.954;2023-07-31T07:40:29;12.38;;;6.40;;
60352;SDS011;46196;52.970;6.954;2023-07-31T07:42:55;10.60;;;5.32;;
60352;SDS011;46196;52.970;6.954;2023-07-31T07:45:21;12.80;;;6.28;;
60352;SDS011;46196;52.970;6.954;2023-07-31T07:47:47;12.20;;;6.30;;
60352;SDS011;46196;52.970;6.954;2023-07-31T07:50:12;14.25;;;5.72;;
60352;SDS011;46196;52.970;6.954;2023-07-31T07:52:38;8.23;;;4.68;;
60352;SDS011;46196;52.970;6.954;2023-07-31T07:55:04;13.57;;;5.20;;
60352;SDS011;46196;52.970;6.954;2023-07-31T07:57:30;9.30;;;4.68;;
60352;SDS011;46196;52.970;6.954;2023-07-31T07:59:55;12.10;;;4.93;;
60352;SDS011;46196;52.970;6.954;2023-07-31T08:02:21;9.98;;;5.57;;
60352;SDS011;46196;52.970;6.954;2023-07-31T08:04:47;8.95;;;4.50;;
60352;SDS011;46196;52.970;6.954;2023-07-31T08:07:13;4.95;;;3.33;;
60352;SDS011;46196;52.970;6.954;2023-07-31T08:09:39;7.03;;;4.20;;
60352;SDS011;46196;52.970;6.954;2023-07-31T08:12:05;12.20;;;4.90;;
60352;SDS011;46196;52.970;6.954;2023-07-31T08:14:32;9.15;;;4.45;;
60352;SDS011;46196;52.970;6.954;2023-07-31T08:16:58;6.40;;;3.63;;
60352;SDS011;46196;52.970;6.954;2023-07-31T08:19:24;8.73;;;4.30;;
60352;SDS011;46196;52.970;6.954;2023-07-31T08:21:50;9.10;;;4.03;;
60352;SDS011;46196;52.970;6.954;2023-07-31T08:24:16;8.05;;;4.00;;
60352;SDS011;46196;52.970;6.954;2023-07-31T08:26:42;9.13;;;3.83;;
60352;SDS011;46196;52.970;6.954;2023-07-31T08:29:07;7.70;;;3.88;;
60352;SDS011;46196;52.970;6.954;2023-07-31T08:31:33;6.57;;;3.50;;
60352;SDS011;46196;52.970;6.954;2023-07-31T08:33:59;5.57;;;3.90;;
60352;SDS011;46196;52.970;6.954;2023-07-31T08:36:26;7.55;;;4.25;;
60352;SDS011;46196;52.970;6.954;2023-07-31T08:38:51;7.88;;;3.80;;
60352;SDS011;46196;52.970;6.954;2023-07-31T08:41:17;5.90;;;3.90;;
60352;SDS011;46196;52.970;6.954;2023-07-31T08:43:44;7.80;;;3.55;;
60352;SDS011;46196;52.970;6.954;2023-07-31T08:48:40;5.80;;;3.40;;
60352;SDS011;46196;52.970;6.954;2023-07-31T08:51:07;5.57;;;3.20;;
60352;SDS011;46196;52.970;6.954;2023-07-31T08:53:33;5.78;;;3.50;;
60352;SDS011;46196;52.970;6.954;2023-07-31T08:55:58;7.00;;;3.55;;
60352;SDS011;46196;52.970;6.954;2023-07-31T08:58:25;7.85;;;3.95;;
60352;SDS011;46196;52.970;6.954;2023-07-31T09:00:55;6.75;;;3.90;;
60352;SDS011;46196;52.970;6.954;2023-07-31T09:03:23;6.55;;;4.20;;
60352;SDS011;46196;52.970;6.954;2023-07-31T09:05:51;7.90;;;4.15;;
60352;SDS011;46196;52.970;6.954;2023-07-31T09:08:20;6.03;;;4.25;;
60352;SDS011;46196;52.970;6.954;2023-07-31T09:10:46;4.82;;;3.35;;
60352;SDS011;46196;52.970;6.954;2023-07-31T09:13:15;7.18;;;3.60;;
60352;SDS011;46196;52.970;6.954;2023-07-31T09:15:42;5.35;;;3.50;;
60352;SDS011;46196;52.970;6.954;2023-07-31T09:18:09;6.47;;;3.63;;
60352;SDS011;46196;52.970;6.954;2023-07-31T09:20:35;4.22;;;3.38;;
60352;SDS011;46196;52.970;6.954;2023-07-31T09:23:09;5.88;;;3.47;;
60352;SDS011;46196;52.970;6.954;2023-07-31T09:25:37;4.75;;;3.20;;
60352;SDS011;46196;52.970;6.954;2023-07-31T09:30:30;4.50;;;3.22;;
60352;SDS011;46196;52.970;6.954;2023-07-31T09:33:00;5.50;;;3.03;;
60352;SDS011;46196;52.970;6.954;2023-07-31T09:35:31;4.47;;;3.40;;
60352;SDS011;46196;52.970;6.954;2023-07-31T09:37:59;3.40;;;2.72;;
60352;SDS011;46196;52.970;6.954;2023-07-31T09:40:34;3.33;;;2.50;;
60352;SDS011;46196;52.970;6.954;2023-07-31T09:43:05;4.88;;;2.90;;
60352;SDS011;46196;52.970;6.954;2023-07-31T09:45:36;3.55;;;2.47;;
60352;SDS011;46196;52.970;6.954;2023-07-31T09:48:06;3.28;;;2.38;;
60352;SDS011;46196;52.970;6.954;2023-07-31T09:50:42;3.57;;;2.80;;
60352;SDS011;46196;52.970;6.954;2023-07-31T09:53:12;3.08;;;2.50;;
60352;SDS011;46196;52.970;6.954;2023-07-31T09:55:39;3.20;;;2.33;;
60352;SDS011;46196;52.970;6.954;2023-07-31T09:58:09;4.88;;;2.53;;
60352;SDS011;46196;52.970;6.954;2023-07-31T10:00:37;2.80;;;2.30;;
60352;SDS011;46196;52.970;6.954;2023-07-31T10:03:09;4.10;;;2.30;;
60352;SDS011;46196;52.970;6.954;2023-07-31T10:05:42;3.03;;;2.25;;
60352;SDS011;46196;52.970;6.954;2023-07-31T10:08:15;3.13;;;2.20;;
60352;SDS011;46196;52.970;6.954;2023-07-31T10:10:43;2.50;;;2.13;;
60352;SDS011;46196;52.970;6.954;2023-07-31T10:13:10;3.72;;;2.30;;
60352;SDS011;46196;52.970;6.954;2023-07-31T10:15:36;4.25;;;2.42;;
60352;SDS011;46196;52.970;6.954;2023-07-31T10:18:02;4.03;;;2.60;;
60352;SDS011;46196;52.970;6.954;2023-07-31T10:20:30;2.55;;;2.15;;
60352;SDS011;46196;52.970;6.954;2023-07-31T10:22:57;2.95;;;2.53;;
60352;SDS011;46196;52.970;6.954;2023-07-31T10:25:24;3.38;;;2.80;;
60352;SDS011;46196;52.970;6.954;2023-07-31T10:27:51;4.30;;;2.60;;
60352;SDS011;46196;52.970;6.954;2023-07-31T10:30:18;3.25;;;2.30;;
60352;SDS011;46196;52.970;6.954;2023-07-31T10:32:48;3.03;;;2.72;;
60352;SDS011;46196;52.970;6.954;2023-07-31T10:35:15;3.63;;;2.50;;
60352;SDS011;46196;52.970;6.954;2023-07-31T10:37:43;2.90;;;2.42;;
60352;SDS011;46196;52.970;6.954;2023-07-31T10:40:18;3.47;;;2.25;;
60352;SDS011;46196;52.970;6.954;2023-07-31T10:42:55;3.10;;;2.30;;
60352;SDS011;46196;52.970;6.954;2023-07-31T10:45:34;2.60;;;2.20;;
60352;SDS011;46196;52.970;6.954;2023-07-31T10:52:58;2.90;;;2.53;;
60352;SDS011;46196;52.970;6.954;2023-07-31T10:57:57;4.35;;;2.85;;
60352;SDS011;46196;52.970;6.954;2023-07-31T11:00:33;2.97;;;2.38;;
60352;SDS011;46196;52.970;6.954;2023-07-31T11:03:04;3.08;;;2.63;;
60352;SDS011;46196;52.970;6.954;2023-07-31T11:06:00;2.97;;;2.45;;
60352;SDS011;46196;52.970;6.954;2023-07-31T11:08:29;2.85;;;2.50;;
60352;SDS011;46196;52.970;6.954;2023-07-31T11:13:28;5.25;;;2.50;;
60352;SDS011;46196;52.970;6.954;2023-07-31T11:15:53;2.95;;;2.33;;
60352;SDS011;46196;52.970;6.954;2023-07-31T11:18:19;2.90;;;2.30;;
60352;SDS011;46196;52.970;6.954;2023-07-31T11:20:46;3.67;;;2.63;;
60352;SDS011;46196;52.970;6.954;2023-07-31T11:23:11;3.40;;;2.65;;
60352;SDS011;46196;52.970;6.954;2023-07-31T11:25:38;3.50;;;2.60;;
60352;SDS011;46196;52.970;6.954;2023-07-31T11:28:11;3.03;;;2.40;;
60352;SDS011;46196;52.970;6.954;2023-07-31T11:30:38;2.72;;;2.20;;
60352;SDS011;46196;52.970;6.954;2023-07-31T11:33:06;2.83;;;2.20;;
60352;SDS011;46196;52.970;6.954;2023-07-31T11:35:42;2.60;;;2.20;;
60352;SDS011;46196;52.970;6.954;2023-07-31T11:38:10;3.60;;;2.40;;
60352;SDS011;46196;52.970;6.954;2023-07-31T11:40:51;3.55;;;2.40;;
60352;SDS011;46196;52.970;6.954;2023-07-31T11:43:18;3.42;;;2.95;;
60352;SDS011;46196;52.970;6.954;2023-07-31T11:45:48;3.22;;;2.50;;
60352;SDS011;46196;52.970;6.954;2023-07-31T11:50:59;3.65;;;2.60;;
60352;SDS011;46196;52.970;6.954;2023-07-31T11:53:27;3.50;;;2.90;;
60352;SDS011;46196;52.970;6.954;2023-07-31T11:56:00;3.10;;;2.60;;
60352;SDS011;46196;52.970;6.954;2023-07-31T11:58:27;3.05;;;2.60;;
60352;SDS011;46196;52.970;6.954;2023-07-31T12:00:56;4.03;;;2.90;;
60352;SDS011;46196;52.970;6.954;2023-07-31T12:03:23;3.60;;;2.90;;
60352;SDS011;46196;52.970;6.954;2023-07-31T12:05:49;4.25;;;2.88;;
60352;SDS011;46196;52.970;6.954;2023-07-31T12:08:14;3.55;;;3.00;;
60352;SDS011;46196;52.970;6.954;2023-07-31T12:10:41;4.45;;;2.85;;
60352;SDS011;46196;52.970;6.954;2023-07-31T12:13:11;3.75;;;3.35;;
60352;SDS011;46196;52.970;6.954;2023-07-31T12:15:45;4.43;;;2.60;;
60352;SDS011;46196;52.970;6.954;2023-07-31T12:18:12;3.10;;;2.33;;
60352;SDS011;46196;52.970;6.954;2023-07-31T12:20:49;3.55;;;2.45;;
60352;SDS011;46196;52.970;6.954;2023-07-31T12:23:24;4.05;;;2.85;;
60352;SDS011;46196;52.970;6.954;2023-07-31T12:26:01;4.10;;;2.53;;
60352;SDS011;46196;52.970;6.954;2023-07-31T12:28:43;3.05;;;2.47;;
60352;SDS011;46196;52.970;6.954;2023-07-31T12:31:10;4.68;;;3.25;;
60352;SDS011;46196;52.970;6.954;2023-07-31T12:33:42;5.05;;;4.13;;
60352;SDS011;46196;52.970;6.954;2023-07-31T12:36:12;2.80;;;2.40;;
60352;SDS011;46196;52.970;6.954;2023-07-31T12:38:40;3.00;;;2.38;;
60352;SDS011;46196;52.970;6.954;2023-07-31T12:41:06;2.85;;;2.47;;
60352;SDS011;46196;52.970;6.954;2023-07-31T12:43:32;2.60;;;2.20;;
60352;SDS011;46196;52.970;6.954;2023-07-31T12:46:01;2.80;;;2.30;;
60352;SDS011;46196;52.970;6.954;2023-07-31T12:48:27;3.15;;;2.30;;
60352;SDS011;46196;52.970;6.954;2023-07-31T12:50:53;2.88;;;2.15;;
60352;SDS011;46196;52.970;6.954;2023-07-31T12:53:19;2.80;;;2.40;;
60352;SDS011;46196;52.970;6.954;2023-07-31T12:55:44;3.20;;;2.90;;
60352;SDS011;46196;52.970;6.954;2023-07-31T12:58:10;2.60;;;2.13;;
60352;SDS011;46196;52.970;6.954;2023-07-31T13:00:36;3.55;;;2.50;;
60352;SDS011;46196;52.970;6.954;2023-07-31T13:03:02;2.47;;;2.28;;
60352;SDS011;46196;52.970;6.954;2023-07-31T13:05:28;2.90;;;2.40;;
60352;SDS011;46196;52.970;6.954;2023-07-31T13:07:54;3.72;;;2.60;;
60352;SDS011;46196;52.970;6.954;2023-07-31T13:10:21;4.15;;;2.45;;
60352;SDS011;46196;52.970;6.954;2023-07-31T13:12:47;3.88;;;2.50;;
60352;SDS011;46196;52.970;6.954;2023-07-31T13:15:13;3.55;;;2.50;;
60352;SDS011;46196;52.970;6.954;2023-07-31T13:17:39;3.03;;;2.55;;
60352;SDS011;46196;52.970;6.954;2023-07-31T13:20:05;3.63;;;2.60;;
60352;SDS011;46196;52.970;6.954;2023-07-31T13:22:31;2.95;;;2.53;;
60352;SDS011;46196;52.970;6.954;2023-07-31T13:24:57;3.08;;;2.50;;
60352;SDS011;46196;52.970;6.954;2023-07-31T13:27:23;3.95;;;2.90;;
60352;SDS011;46196;52.970;6.954;2023-07-31T13:29:49;4.45;;;2.75;;
60352;SDS011;46196;52.970;6.954;2023-07-31T13:32:18;4.43;;;2.75;;
60352;SDS011;46196;52.970;6.954;2023-07-31T13:34:45;5.10;;;2.67;;
60352;SDS011;46196;52.970;6.954;2023-07-31T13:37:11;3.08;;;2.50;;
60352;SDS011;46196;52.970;6.954;2023-07-31T13:39:37;4.35;;;2.63;;
60352;SDS011;46196;52.970;6.954;2023-07-31T13:42:03;5.35;;;2.80;;
60352;SDS011;46196;52.970;6.954;2023-07-31T13:44:31;3.60;;;2.70;;
60352;SDS011;46196;52.970;6.954;2023-07-31T13:46:57;4.60;;;3.03;;
60352;SDS011;46196;52.970;6.954;2023-07-31T13:49:23;3.70;;;2.78;;
60352;SDS011;46196;52.970;6.954;2023-07-31T13:51:49;4.07;;;3.15;;
60352;SDS011;46196;52.970;6.954;2023-07-31T13:54:15;3.67;;;2.88;;
60352;SDS011;46196;52.970;6.954;2023-07-31T13:56:42;6.72;;;3.00;;
60352;SDS011;46196;52.970;6.954;2023-07-31T13:59:08;4.60;;;3.20;;
60352;SDS011;46196;52.970;6.954;2023-07-31T14:01:33;5.57;;;3.42;;
60352;SDS011;46196;52.970;6.954;2023-07-31T14:03:59;5.32;;;3.40;;
60352;SDS011;46196;52.970;6.954;2023-07-31T14:06:25;3.92;;;2.95;;
60352;SDS011;46196;52.970;6.954;2023-07-31T14:08:50;4.03;;;3.38;;
60352;SDS011;46196;52.970;6.954;2023-07-31T14:11:16;6.15;;;3.20;;
60352;SDS011;46196;52.970;6.954;2023-07-31T14:13:42;6.90;;;3.58;;
60352;SDS011;46196;52.970;6.954;2023-07-31T14:16:08;5.07;;;3.00;;
60352;SDS011;46196;52.970;6.954;2023-07-31T14:18:33;4.65;;;3.28;;
60352;SDS011;46196;52.970;6.954;2023-07-31T14:20:59;4.65;;;3.38;;
60352;SDS011;46196;52.970;6.954;2023-07-31T14:23:25;4.70;;;3.30;;
60352;SDS011;46196;52.970;6.954;2023-07-31T14:25:51;7.47;;;3.72;;
60352;SDS011;46196;52.970;6.954;2023-07-31T14:28:16;9.60;;;3.17;;
60352;SDS011;46196;52.970;6.954;2023-07-31T14:30:42;4.85;;;2.90;;
60352;SDS011;46196;52.970;6.954;2023-07-31T14:33:08;6.85;;;3.35;;
60352;SDS011;46196;52.970;6.954;2023-07-31T14:35:34;8.40;;;3.22;;
60352;SDS011;46196;52.970;6.954;2023-07-31T14:38:00;5.07;;;3.13;;
60352;SDS011;46196;52.970;6.954;2023-07-31T14:40:27;6.03;;;3.33;;
60352;SDS011;46196;52.970;6.954;2023-07-31T14:42:53;6.80;;;3.75;;
60352;SDS011;46196;52.970;6.954;2023-07-31T14:45:18;5.50;;;3.42;;
60352;SDS011;46196;52.970;6.954;2023-07-31T14:47:44;5.50;;;2.97;;
60352;SDS011;46196;52.970;6.954;2023-07-31T14:50:09;6.35;;;3.25;;
60352;SDS011;46196;52.970;6.954;2023-07-31T14:52:35;8.73;;;3.47;;
60352;SDS011;46196;52.970;6.954;2023-07-31T14:55:01;4.65;;;3.00;;
60352;SDS011;46196;52.970;6.954;2023-07-31T14:57:27;5.68;;;3.42;;
60352;SDS011;46196;52.970;6.954;2023-07-31T14:59:53;8.50;;;3.80;;
60352;SDS011;46196;52.970;6.954;2023-07-31T15:02:19;4.82;;;3.67;;
60352;SDS011;46196;52.970;6.954;2023-07-31T15:04:45;9.00;;;3.67;;
60352;SDS011;46196;52.970;6.954;2023-07-31T15:07:10;7.40;;;4.28;;
60352;SDS011;46196;52.970;6.954;2023-07-31T15:09:38;6.53;;;3.92;;
60352;SDS011;46196;52.970;6.954;2023-07-31T15:12:04;10.25;;;3.65;;